Filter Time Trial Cup 2018 - FINAL, Ikla 25/5 km
Skip Navigation Links
Results
Leaderboard
Course Map
Race Series
26 Aug 2018
HyperLink
Page 1 of 14 (697 items)
[1]234567...11121314
Pos
Race No
Fav
Name
Time
Category
Cat Pos
Gender
Gen Pos
Team
Country
BY
Points
Start
2.5km
BikeTurn
Finish
1327Gleb Karpenko00:32:05M-U191Male1 EST 200140014:28:0200:03:0600:15:4400:32:05
2288Artjom Mirzojev00:32:44M-U192Male2CFC SPORDIKLUBIEST 200135913:22:3200:03:0100:15:5200:32:44
31Kert Martma00:32:59M351Male3CFC SPORDIKLUBIEST 198333812:18:0200:03:0600:15:5500:32:59
4143Janno Aksin00:33:26M352Male4 EST 197932712:50:0200:03:1200:16:1900:33:26
51055Artis Roze00:33:30M301Male5Dobeles Dzirnavnieks - FeelFreeLAT 198731613:00:0200:03:0800:16:0700:33:30
6330Emeri Lepp00:33:31M401Male6 EST 197630512:44:3200:03:0900:16:0200:33:31
71001Vitālijs Korņilovs00:33:41M353Male7 LAT 197930213:41:3200:03:0500:16:1900:33:41
8151Oskar Maidre00:33:59M-U231Male8CFC SPORDIKLUBIEST 199929912:21:3200:03:1200:16:2900:33:59
9293Arthur Kooser00:34:05M-U232Male9CFC Spordiklubi IIIEST 199729614:16:3200:03:1300:16:2800:34:05
101022Jānis Vecvanags00:34:06M302Male10FILTERLAT 198729314:12:0200:03:1900:16:4600:34:06
111139Didzis Piļāns00:34:11M354Male11Virsotne/MARMOTLAT 198029013:07:0200:03:1100:16:2500:34:11
12489Christopher Grubb00:34:22M501Male12 EST 196528912:37:0100:03:1600:16:2000:34:22
13122Helari Pallas00:34:27M355Male13Spordipartner/Amps/ATEST 197928812:34:3200:03:1100:16:2800:34:27
141058Niklāvs Boļšis00:34:34M-U233Male14Dobeles Dzirnavnieks - FeelFreeLAT 199828712:46:3100:03:1500:16:3800:34:34
151077Sandis Āķis00:34:37M402Male15EVELO TEAMLAT 197528614:02:3200:03:1000:16:4600:34:37
16221Urmas Karlson00:34:46M551Male16Spordipartner/Amps/ATEST 196128512:50:3200:03:2100:16:4900:34:46
1786Toomas Elling00:34:46M403Male17Rae Rattaklubi IEST 197528413:20:3200:03:1800:17:0500:34:46
18231Robin Kreegimets00:34:48M-U193Male18CFC SPORDIKLUBIEST 200028313:29:0200:03:0900:16:4200:34:48
191140Arvils Vikštrems00:35:08M-U301Male19 LAT 198928213:16:3100:03:2300:17:0100:35:08
20161Raimo Kivioja00:35:12M356Male20Spordipartner/Amps/ATEST 198328113:56:0200:03:1900:16:5800:35:12
2174Margus Mikk00:35:15M404Male21Spordipartner/Amps/ATEST 197528013:02:3200:03:1500:16:5900:35:15
22158Indrek Ott00:35:26M357Male22 EST 197927912:59:3200:03:2200:17:0900:35:26
2336Rene Kübar00:35:29M405Male23Rae Rattaklubi IEST 197627812:20:0300:03:2000:17:0200:35:29
24487Andrey Gonchar00:35:30M303Male24 EST 198527713:18:3300:03:2000:16:5700:35:30
251285Kristaps Knops00:35:30M304Male25ZZK TEAMLAT 198527613:49:3200:03:1900:17:1500:35:30
26488Aleksandr Shitikov00:35:39M-U302Male26 EST 198927512:47:3200:03:1600:16:5600:35:39
271096Matīss Zērvēns00:35:42M-U303Male27Engures sportamLAT 199227413:12:0200:03:2700:17:1400:35:42
28133Marko Johanson00:36:00M305Male28Viimsi Sport 2EST 198827313:09:3100:03:2300:17:2700:36:00
291090Jānis Andersons00:36:02M406Male29FILTERLAT 197627213:47:3200:03:2700:17:4400:36:02
30135Carl Sõlg00:36:05M306Male30 EST 198527114:01:3200:03:1700:17:2400:36:05
311122Lauris Pārups00:36:19M358Male31Dobeles Dzirnavnieks - FeelFreeLAT 198127013:10:3200:03:3100:17:4000:36:19
321070Ričards Jakobsons00:36:22M359Male32Gaismas Maģija - Stividors LP Cycling TeamLAT 198126912:52:3200:03:1800:17:2200:36:22
331078Dzintars Kaņepējs00:36:22M502Male33 LAT 196826812:35:0100:03:1400:17:1400:36:22
341003Aigars Zvingulis00:36:28M552Male34Virsotne/MARMOTLAT 196126714:03:0300:03:2200:18:0100:36:28
351083Ģirts Melbārdis00:36:31M3510Male35 LAT 197926613:42:0200:03:2200:17:5400:36:31
361095Raimonds Veinbergs00:36:31M407Male36Virsotne/MARMOTLAT 197726512:59:0200:03:2400:17:3000:36:31
37485Rando Kall00:36:35M408Male37 EST 197526412:43:0200:03:3100:17:4100:36:35
381280Viesturs Lejiņš00:36:35M3511Male38Dobeles dzirnavnieksLAT 198226313:11:3200:03:2400:17:3900:36:35
3915Rain Tulp00:36:35M503Male39 EST 196726212:15:0200:03:2300:17:4000:36:35
401193Aigars Kalējs00:36:37M3512Male40Virsotne/MARMOTLAT 198126114:01:0200:03:2100:17:4700:36:37
41486Donatas Sankauskas00:36:38M307Male41 EST 198526013:33:0200:03:3400:17:4900:36:38
42278Liisi Rist00:36:42N-U301Female1Hawaii Express TeamEST 199140012:51:0200:03:3000:17:3700:36:42
431184Agnis Apse00:36:45M451Male42VeloLifestyle/SmiltenesBJSSLAT 197125913:53:0200:03:2300:17:4800:36:45
44100Indrek Viska00:36:50M3513Male43 EST 198225813:51:0200:03:2200:17:5800:36:50
451005Evgeny Malyshev00:36:52M3514Male44 LAT 198225712:38:3200:03:1600:17:2000:36:52
461069Juris Visockis00:36:53M3515Male45DOLTCINI Latvia Cycling TeamLAT 198225612:30:0200:03:2100:17:3000:36:53
471089Dmitrijs Kuzņecovs00:36:54M3516Male46 LAT 198125512:19:3400:03:2300:17:3800:36:54
481093Edgars Nikels00:37:02M3517Male47Virsotne/MARMOTLAT 198325412:34:0200:03:2500:17:3700:37:02
49269Jaanus Põtter00:37:03M452Male48 EST 197325312:11:0200:03:2400:17:4400:37:03
50490Meelis Tammer00:37:10M409Male49 EST 197425213:20:0200:03:3200:17:5100:37:10
Page 1 of 14 (697 items)
[1]234567...11121314

HyperLink Copyright (c) G Vincent, 2018